Pelagia — PGRQ — position and weather

sailwx.info

Track history (hours):
 
Tides and Currents Weather Stations Pressure Air Temp Water Temp Dewpoint Dewpoint Depression Visibility Wind Speed Wind Dir Waves Ship Positions

Oceanographic research ship Pelagia (Netherlands)

Detailed information on ship capabilities available from University of Delaware's Ocean Information Center and ARCUS's ALIAS (Arctic Logistics Information and Support) project.

Last reported at 2017-Apr-28 09:25 UTC. Time now 2017-Apr-30 05:13 UTC.
Position N 51°36' W 010°23'.

Length 66 m; beam 13 m.

Type: Other ship. MMSI: 244925000.

Date/timePositionNaut miles runAvg speedWind from/ knotsBaromVisibWave heightAir tempDewpointWater temp
2017-Apr-28 09:25N 51°36' W 010°23'410.1
2017-Apr-28 09:00N 51°33' W 010°19'5 9.6
2017-Apr-28 08:30N 51°29' W 010°14'510.1
2017-Apr-28 08:00N 51°25' W 010°09'510.1
2017-Apr-28 07:30N 51°21' W 010°03'510.0
2017-Apr-28 07:00N 51°18' W 009°58'5 9.8
2017-Apr-28 06:30N 51°15' W 009°51'5 9.8
2017-Apr-28 06:00N 51°12' W 009°45'11 9.8
2017-Apr-28 04:51N 51°05' W 009°31'203 9.6
2017-Apr-27 07:38N 49°52' W 004°32'3 9.6
2017-Apr-27 07:19N 49°53' W 004°28'3 9.3
2017-Apr-27 06:58N 49°53' W 004°23'4 9.0
2017-Apr-27 06:28N 49°54' W 004°16'6 8.8
2017-Apr-27 05:45N 49°55' W 004°06'2 8.8
2017-Apr-27 05:30N 49°55' W 004°03'4 8.8
2017-Apr-27 05:00N 49°56' W 003°56'5 9.1
2017-Apr-27 04:30N 49°56' W 003°49'5 9.6
2017-Apr-27 04:00N 49°57' W 003°42'510.3
2017-Apr-27 03:30N 49°57' W 003°34'510.9
2017-Apr-27 03:00N 49°58' W 003°25'611.7
2017-Apr-27 02:30N 49°59' W 003°16'612.4
2017-Apr-27 02:00N 49°60' W 003°07'613.0
2017-Apr-27 01:30N 50°01' W 002°57'713.4
2017-Apr-27 01:00N 50°03' W 002°47'93 9.7
2017-Apr-26 15:24N 50°28' W 000°26'512.9
2017-Apr-26 15:00N 50°29' W 000°19'612.6
2017-Apr-26 14:30N 50°31' W 000°09'1212.2
2017-Apr-26 13:30N 50°34' E 000°09'611.7
2017-Apr-26 13:00N 50°36' E 000°18'611.3
2017-Apr-26 12:28N 50°37' E 000°27'510.6
2017-Apr-26 12:00N 50°39' E 000°35'510.3
2017-Apr-26 11:30N 50°42' E 000°42'5 9.8
2017-Apr-26 11:00N 50°45' E 000°48'13 9.6
2017-Apr-26 09:39N 50°52' E 001°04'2 9.7
2017-Apr-26 09:30N 50°53' E 001°06'510.1
2017-Apr-26 09:00N 50°57' E 001°12'511.0
2017-Apr-26 08:30N 51°00' E 001°19'612.7
2017-Apr-26 08:00N 51°04' E 001°27'714.0
2017-Apr-26 07:30N 51°08' E 001°35'713.6
2017-Apr-26 07:00N 51°13' E 001°43'613.0
2017-Apr-26 06:30N 51°19' E 001°48'612.3
2017-Apr-26 06:00N 51°24' E 001°52'510.9
2017-Apr-26 05:30N 51°29' E 001°57'510.5
2017-Apr-26 05:00N 51°33' E 002°02'93 9.5
2017-Apr-25 19:14N 52°35' E 003°54'210.1
2017-Apr-25 19:00N 52°37' E 003°58'5 9.8
2017-Apr-25 18:29N 52°39' E 004°04'5 9.5
2017-Apr-25 17:59N 52°42' E 004°11'4 9.0
2017-Apr-25 17:30N 52°45' E 004°17'4 8.4
2017-Apr-25 17:00N 52°47' E 004°23'4 8.1
2017-Apr-25 16:30N 52°49' E 004°28'4 7.8
2017-Apr-25 16:00N 52°51' E 004°34'4 7.8
2017-Apr-25 15:30N 52°54' E 004°38'4 7.4
2017-Apr-25 15:00N 52°57' E 004°42'3 6.4
2017-Apr-25 14:30N 52°59' E 004°46'2 1.8
2017-Apr-25 13:30N 53°00' E 004°48'0 0.0
2017-Apr-25 13:00N 53°00' E 004°48'0 0.0
2017-Apr-25 12:30N 53°00' E 004°48'0 0.0
2017-Apr-25 12:00N 53°00' E 004°48'0 0.0
2017-Apr-25 11:30N 53°00' E 004°48'0 0.0
2017-Apr-25 10:57N 53°00' E 004°48'0 0.0
2017-Apr-25 10:30N 53°00' E 004°48'0 0.0
2017-Apr-25 10:00N 53°00' E 004°48'0 0.0
2017-Apr-25 09:30N 53°00' E 004°48'0 0.0
2017-Apr-25 08:57N 53°00' E 004°48'0 0.0
2017-Apr-25 08:30N 53°00' E 004°48'0 0.0
2017-Apr-25 08:00N 53°00' E 004°48'0 0.0
2017-Apr-25 07:27N 53°00' E 004°48'0 0.0
2017-Apr-25 06:57N 53°00' E 004°48'0 0.0
2017-Apr-25 06:30N 53°00' E 004°48'0 0.0
2017-Apr-25 06:00N 53°00' E 004°48'0 0.0
2017-Apr-25 05:30N 53°00' E 004°48'0 0.0
2017-Apr-25 04:57N 53°00' E 004°48'0 0.0
2017-Apr-25 04:27N 53°00' E 004°48'0 0.0
2017-Apr-25 04:00N 53°00' E 004°48'0 0.0
2017-Apr-25 03:27N 53°00' E 004°48'0 0.0
2017-Apr-25 03:00N 53°00' E 004°48'0 0.0
2017-Apr-25 02:30N 53°00' E 004°48'0 0.0
2017-Apr-25 02:00N 53°00' E 004°48'0 0.0
2017-Apr-25 01:30N 53°00' E 004°48'0 0.0
2017-Apr-25 01:00N 53°00' E 004°48'0 0.0
2017-Apr-25 00:30N 53°00' E 004°48'0 0.0
2017-Apr-25 00:00N 53°00' E 004°48'0 0.0
2017-Apr-24 23:27N 53°00' E 004°48'0 0.0
2017-Apr-24 23:00N 53°00' E 004°48'0 0.0
2017-Apr-24 22:30N 53°00' E 004°48'0 0.0
2017-Apr-24 22:00N 53°00' E 004°48'0 0.0
2017-Apr-24 21:30N 53°00' E 004°48'0 0.0
2017-Apr-24 21:00N 53°00' E 004°48'0 0.0
2017-Apr-24 20:30N 53°00' E 004°48'0 0.0
2017-Apr-24 19:57N 53°00' E 004°48'0 0.0
2017-Apr-24 19:27N 53°00' E 004°48'0 0.0
2017-Apr-24 19:00N 53°00' E 004°48'0 0.0
2017-Apr-24 18:27N 53°00' E 004°48'0 0.0
2017-Apr-24 18:00N 53°00' E 004°48'0 0.0
2017-Apr-24 17:30N 53°00' E 004°48'0 0.0
2017-Apr-24 17:00N 53°00' E 004°48'0 0.0
2017-Apr-24 16:30N 53°00' E 004°48'0 0.0
2017-Apr-24 16:00N 53°00' E 004°48'0 0.0
2017-Apr-24 15:27N 53°00' E 004°48'0 0.0
2017-Apr-24 15:00N 53°00' E 004°48'0 0.0
2017-Apr-24 14:30N 53°00' E 004°48'0 0.0
2017-Apr-24 13:30N 53°00' E 004°48'0 0.0
2017-Apr-24 13:00N 53°00' E 004°48'0 0.0
2017-Apr-24 12:30N 53°00' E 004°48'0 0.0
2017-Apr-24 12:00N 53°00' E 004°48'0 0.0
2017-Apr-24 11:30N 53°00' E 004°48'0 0.0
2017-Apr-24 11:00N 53°00' E 004°48'0 0.0
2017-Apr-24 10:27N 53°00' E 004°48'0 0.0
2017-Apr-24 10:00N 53°00' E 004°48'0 0.0
2017-Apr-24 09:27N 53°00' E 004°48'0 0.0
2017-Apr-24 08:57N 53°00' E 004°48'0 0.0
2017-Apr-24 08:30N 53°00' E 004°48'0 0.0
2017-Apr-24 08:00N 53°00' E 004°48'0 0.0
2017-Apr-24 07:30N 53°00' E 004°48'0 0.0
2017-Apr-24 07:00N 53°00' E 004°48'0 0.0
2017-Apr-24 06:30N 53°00' E 004°48'0 0.0
2017-Apr-24 06:00N 53°00' E 004°48'0 0.0
2017-Apr-24 05:30N 53°00' E 004°48'0 0.0
2017-Apr-24 04:57N 53°00' E 004°48'0 0.0
2017-Apr-24 04:30N 53°00' E 004°48'0 0.0
2017-Apr-24 04:00N 53°00' E 004°48'0 0.0
2017-Apr-24 03:30N 53°00' E 004°48'0 0.0
2017-Apr-24 03:00N 53°00' E 004°48'0 0.0
2017-Apr-24 02:30N 53°00' E 004°48'0 0.0
2017-Apr-24 02:00N 53°00' E 004°48'0 0.0
2017-Apr-24 01:29N 53°00' E 004°48'0 0.0
2017-Apr-24 00:56N 53°00' E 004°48'0 0.0
2017-Apr-24 00:29N 53°00' E 004°48'0 0.0
2017-Apr-23 23:59N 53°00' E 004°48'0 0.0
2017-Apr-23 23:29N 53°00' E 004°48'0 0.0
2017-Apr-23 22:59N 53°00' E 004°48'0 0.0
2017-Apr-23 22:29N 53°00' E 004°48'0 0.0
2017-Apr-23 21:56N 53°00' E 004°48'0 0.0
2017-Apr-23 21:29N 53°00' E 004°48'0 0.0
2017-Apr-23 20:59N 53°00' E 004°48'0 0.0
2017-Apr-23 20:29N 53°00' E 004°48'0 0.0
2017-Apr-23 19:59N 53°00' E 004°48'0 0.0
2017-Apr-23 19:29N 53°00' E 004°48'0 0.0
2017-Apr-23 18:56N 53°00' E 004°48'0 0.0
2017-Apr-23 18:29N 53°00' E 004°48'0 0.0
2017-Apr-23 17:56N 53°00' E 004°48'0 0.0
2017-Apr-23 17:29N 53°00' E 004°48'0 0.0
2017-Apr-23 16:59N 53°00' E 004°48'0 0.0
2017-Apr-23 16:29N 53°00' E 004°48'0 0.0
2017-Apr-23 15:59N 53°00' E 004°48'0 0.0
2017-Apr-23 15:29N 53°00' E 004°48'0 0.0
2017-Apr-23 14:59N 53°00' E 004°48'0 0.0
2017-Apr-23 13:59N 53°00' E 004°48'0 0.0
2017-Apr-23 13:29N 53°00' E 004°48'0 0.0
2017-Apr-23 12:59N 53°00' E 004°48'0 0.0
2017-Apr-23 12:29N 53°00' E 004°48'0 0.0
2017-Apr-23 11:59N 53°00' E 004°48'0 0.0
2017-Apr-23 11:29N 53°00' E 004°48'0 0.0
2017-Apr-23 10:59N 53°00' E 004°48'0 0.0
2017-Apr-23 10:29N 53°00' E 004°48'0 0.0
2017-Apr-23 09:59N 53°00' E 004°48'0 0.0
2017-Apr-23 09:29N 53°00' E 004°48'0 0.0
2017-Apr-23 08:59N 53°00' E 004°48'0 0.0
2017-Apr-23 08:26N 53°00' E 004°48'0 0.0
2017-Apr-23 07:59N 53°00' E 004°48'0 0.0
2017-Apr-23 07:23N 53°00' E 004°48'0 0.0
2017-Apr-23 06:59N 53°00' E 004°48'0 0.0
2017-Apr-23 06:29N 53°00' E 004°48'0 0.0
2017-Apr-23 05:56N 53°00' E 004°48'0 0.0
2017-Apr-23 05:29N 53°00' E 004°48'0 0.0
2017-Apr-23 04:59N 53°00' E 004°48'0 0.0
2017-Apr-23 04:29N 53°00' E 004°48'0 0.0
2017-Apr-23 03:56N 53°00' E 004°48'0 0.0
2017-Apr-23 03:29N 53°00' E 004°48'0 0.0
2017-Apr-23 02:59N 53°00' E 004°48'0 0.0
2017-Apr-23 02:26N 53°00' E 004°48'0 0.0
2017-Apr-23 01:59N 53°00' E 004°48'0 0.0
2017-Apr-23 01:29N 53°00' E 004°48'0 0.0
2017-Apr-23 00:59N 53°00' E 004°48'0 0.0
2017-Apr-23 00:26N 53°00' E 004°48'0 0.0
2017-Apr-22 23:56N 53°00' E 004°48'0 0.0
2017-Apr-22 23:26N 53°00' E 004°48'0 0.0
2017-Apr-22 22:59N 53°00' E 004°48'0 0.0
2017-Apr-22 22:29N 53°00' E 004°48'0 0.0
2017-Apr-22 21:59N 53°00' E 004°48'0 0.0
2017-Apr-22 21:29N 53°00' E 004°48'0 0.0
2017-Apr-22 20:59N 53°00' E 004°48'0 0.0
2017-Apr-22 20:20N 53°00' E 004°48'0 0.0
2017-Apr-22 19:59N 53°00' E 004°48'0 0.0
2017-Apr-22 19:29N 53°00' E 004°48'0 0.0
2017-Apr-22 18:59N 53°00' E 004°48'0 0.0
2017-Apr-22 18:26N 53°00' E 004°48'0 0.0
2017-Apr-22 17:59N 53°00' E 004°48'0 0.0
2017-Apr-22 17:29N 53°00' E 004°48'0 0.0
2017-Apr-22 16:56N 53°00' E 004°48'0 0.0
2017-Apr-22 16:29N 53°00' E 004°48'0 0.0
2017-Apr-22 15:59N 53°00' E 004°48'0 0.0
2017-Apr-22 15:29N 53°00' E 004°48'0 0.0
2017-Apr-22 14:59N 53°00' E 004°48'0 0.0
2017-Apr-22 14:29N 53°00' E 004°48'0 0.0
2017-Apr-22 13:29N 53°00' E 004°48'0 0.0
2017-Apr-22 12:59N 53°00' E 004°48'0 0.0
2017-Apr-22 12:28N 53°00' E 004°48'0 0.0
2017-Apr-22 11:58N 53°00' E 004°48'0 0.0
2017-Apr-22 11:28N 53°00' E 004°48'0 0.0
2017-Apr-22 10:58N 53°00' E 004°48'0 0.0
2017-Apr-22 10:28N 53°00' E 004°48'0 0.0
2017-Apr-22 09:58N 53°00' E 004°48'0 0.0
2017-Apr-22 09:25N 53°00' E 004°48'0 0.0
2017-Apr-22 08:58N 53°00' E 004°48'0 0.0
2017-Apr-22 08:25N 53°00' E 004°48'0 0.0
2017-Apr-22 07:58N 53°00' E 004°48'0 0.0
2017-Apr-22 07:28N 53°00' E 004°48'0 0.0
2017-Apr-22 06:58N 53°00' E 004°48'0 0.0
2017-Apr-22 06:28N 53°00' E 004°48'0 0.0
2017-Apr-22 05:58N 53°00' E 004°48'0 0.0
2017-Apr-22 05:28N 53°00' E 004°48'0 0.0
2017-Apr-22 04:58N 53°00' E 004°48'0 0.0
2017-Apr-22 04:25N 53°00' E 004°48'0 0.0
2017-Apr-22 03:58N 53°00' E 004°48'0 0.0
2017-Apr-22 03:22N 53°00' E 004°48'0 0.0
2017-Apr-22 02:58N 53°00' E 004°48'0 0.0
2017-Apr-22 02:28N 53°00' E 004°48'0 0.0
2017-Apr-22 01:58N 53°00' E 004°48'0 0.0
2017-Apr-22 01:28N 53°00' E 004°48'0 0.0
2017-Apr-22 00:58N 53°00' E 004°48'0 0.0
2017-Apr-22 00:28N 53°00' E 004°48'0 0.0
2017-Apr-21 23:58N 53°00' E 004°48'0 0.0
2017-Apr-21 23:28N 53°00' E 004°48'0 0.0
2017-Apr-21 22:58N 53°00' E 004°48'0 0.0
2017-Apr-21 22:28N 53°00' E 004°48'0 0.0
2017-Apr-21 21:58N 53°00' E 004°48'0 0.0
2017-Apr-21 21:28N 53°00' E 004°48'0 0.0
2017-Apr-21 20:58N 53°00' E 004°48'0 0.0
2017-Apr-21 20:28N 53°00' E 004°48'0 0.0
2017-Apr-21 19:58N 53°00' E 004°48'0 0.0
2017-Apr-21 19:28N 53°00' E 004°48'0 0.0
2017-Apr-21 18:58N 53°00' E 004°48'0 0.0
2017-Apr-21 18:19N 53°00' E 004°48'0 0.0
2017-Apr-21 17:58N 53°00' E 004°48'0 0.0
2017-Apr-21 17:25N 53°00' E 004°48'0 0.0
2017-Apr-21 16:58N 53°00' E 004°48'0 0.0
2017-Apr-21 16:28N 53°00' E 004°48'0 0.0
2017-Apr-21 15:58N 53°00' E 004°48'1 2.5
2017-Apr-21 15:30N 53°01' E 004°50'1 1.8
2017-Apr-21 15:00N 53°00' E 004°48'510.2
2017-Apr-21 14:30N 52°57' E 004°42'1110.8
2017-Apr-21 13:30N 52°49' E 004°29'611.4
2017-Apr-21 13:00N 52°46' E 004°21'611.6
2017-Apr-21 12:30N 52°43' E 004°13'611.7
2017-Apr-21 12:00N 52°40' E 004°05'611.6
2017-Apr-21 11:30N 52°36' E 003°57'611.5
2017-Apr-21 10:59N 52°33' E 003°49'611.5
2017-Apr-21 10:29N 52°30' E 003°42'611.5
2017-Apr-21 10:00N 52°26' E 003°35'611.6
2017-Apr-21 09:29N 52°22' E 003°27'611.5
2017-Apr-21 08:59N 52°18' E 003°21'5610.4
2017-Apr-21 03:34N 51°35' E 002°22'2 9.7
2017-Apr-21 03:22N 51°33' E 002°20'4 9.7
2017-Apr-21 02:59N 51°30' E 002°17'5 9.8
2017-Apr-21 02:29N 51°27' E 002°12'5 9.9
2017-Apr-21 02:00N 51°23' E 002°07'510.0
2017-Apr-21 01:30N 51°19' E 002°01'510.1
2017-Apr-21 01:00N 51°16' E 001°55'510.3
2017-Apr-21 00:30N 51°13' E 001°49'510.3
2017-Apr-21 00:00N 51°09' E 001°44'510.4
2017-Apr-20 23:30N 51°05' E 001°39'510.6
2017-Apr-20 23:00N 51°01' E 001°33'610.9
2017-Apr-20 22:29N 50°56' E 001°28'6010.2
2017-Apr-20 16:37N 50°19' E 000°13'211.4
2017-Apr-20 16:28N 50°19' E 000°11'611.5
2017-Apr-20 15:58N 50°17' E 000°02'611.6
2017-Apr-20 15:28N 50°15' W 000°06'  
Track history (hours):
 
Tides and Currents Weather Stations Pressure Air Temp Water Temp Dewpoint Dewpoint Depression Visibility Wind Speed Wind Dir Waves Ship Positions

Oceanographic research ship Pelagia (Netherlands)

Detailed information on ship capabilities available from University of Delaware's Ocean Information Center and ARCUS's ALIAS (Arctic Logistics Information and Support) project.

Last reported at 2017-Apr-28 09:25 UTC. Time now 2017-Apr-30 05:13 UTC.
Position N 51°36' W 010°23'.

Length 66 m; beam 13 m.

Type: Other ship. MMSI: 244925000.

Date/timePositionNaut miles runAvg speedWind from/ knotsBaromVisibWave heightAir tempDewpointWater temp
2017-Apr-28 09:25N 51°36' W 010°23'410.1
2017-Apr-28 09:00N 51°33' W 010°19'5 9.6
2017-Apr-28 08:30N 51°29' W 010°14'510.1
2017-Apr-28 08:00N 51°25' W 010°09'510.1
2017-Apr-28 07:30N 51°21' W 010°03'510.0
2017-Apr-28 07:00N 51°18' W 009°58'5 9.8
2017-Apr-28 06:30N 51°15' W 009°51'5 9.8
2017-Apr-28 06:00N 51°12' W 009°45'11 9.8
2017-Apr-28 04:51N 51°05' W 009°31'203 9.6
2017-Apr-27 07:38N 49°52' W 004°32'3 9.6
2017-Apr-27 07:19N 49°53' W 004°28'3 9.3
2017-Apr-27 06:58N 49°53' W 004°23'4 9.0
2017-Apr-27 06:28N 49°54' W 004°16'6 8.8
2017-Apr-27 05:45N 49°55' W 004°06'2 8.8
2017-Apr-27 05:30N 49°55' W 004°03'4 8.8
2017-Apr-27 05:00N 49°56' W 003°56'5 9.1
2017-Apr-27 04:30N 49°56' W 003°49'5 9.6
2017-Apr-27 04:00N 49°57' W 003°42'510.3
2017-Apr-27 03:30N 49°57' W 003°34'510.9
2017-Apr-27 03:00N 49°58' W 003°25'611.7
2017-Apr-27 02:30N 49°59' W 003°16'612.4
2017-Apr-27 02:00N 49°60' W 003°07'613.0
2017-Apr-27 01:30N 50°01' W 002°57'713.4
2017-Apr-27 01:00N 50°03' W 002°47'93 9.7
2017-Apr-26 15:24N 50°28' W 000°26'512.9
2017-Apr-26 15:00N 50°29' W 000°19'612.6
2017-Apr-26 14:30N 50°31' W 000°09'1212.2
2017-Apr-26 13:30N 50°34' E 000°09'611.7
2017-Apr-26 13:00N 50°36' E 000°18'611.3
2017-Apr-26 12:28N 50°37' E 000°27'510.6
2017-Apr-26 12:00N 50°39' E 000°35'510.3
2017-Apr-26 11:30N 50°42' E 000°42'5 9.8
2017-Apr-26 11:00N 50°45' E 000°48'13 9.6
2017-Apr-26 09:39N 50°52' E 001°04'2 9.7
2017-Apr-26 09:30N 50°53' E 001°06'510.1
2017-Apr-26 09:00N 50°57' E 001°12'511.0
2017-Apr-26 08:30N 51°00' E 001°19'612.7
2017-Apr-26 08:00N 51°04' E 001°27'714.0
2017-Apr-26 07:30N 51°08' E 001°35'713.6
2017-Apr-26 07:00N 51°13' E 001°43'613.0
2017-Apr-26 06:30N 51°19' E 001°48'612.3
2017-Apr-26 06:00N 51°24' E 001°52'510.9
2017-Apr-26 05:30N 51°29' E 001°57'510.5
2017-Apr-26 05:00N 51°33' E 002°02'93 9.5
2017-Apr-25 19:14N 52°35' E 003°54'210.1
2017-Apr-25 19:00N 52°37' E 003°58'5 9.8
2017-Apr-25 18:29N 52°39' E 004°04'5 9.5
2017-Apr-25 17:59N 52°42' E 004°11'4 9.0
2017-Apr-25 17:30N 52°45' E 004°17'4 8.4
2017-Apr-25 17:00N 52°47' E 004°23'4 8.1
2017-Apr-25 16:30N 52°49' E 004°28'4 7.8
2017-Apr-25 16:00N 52°51' E 004°34'4 7.8
2017-Apr-25 15:30N 52°54' E 004°38'4 7.4
2017-Apr-25 15:00N 52°57' E 004°42'3 6.4
2017-Apr-25 14:30N 52°59' E 004°46'2 1.8
2017-Apr-25 13:30N 53°00' E 004°48'0 0.0
2017-Apr-25 13:00N 53°00' E 004°48'0 0.0
2017-Apr-25 12:30N 53°00' E 004°48'0 0.0
2017-Apr-25 12:00N 53°00' E 004°48'0 0.0
2017-Apr-25 11:30N 53°00' E 004°48'0 0.0
2017-Apr-25 10:57N 53°00' E 004°48'0 0.0
2017-Apr-25 10:30N 53°00' E 004°48'0 0.0
2017-Apr-25 10:00N 53°00' E 004°48'0 0.0
2017-Apr-25 09:30N 53°00' E 004°48'0 0.0
2017-Apr-25 08:57N 53°00' E 004°48'0 0.0
2017-Apr-25 08:30N 53°00' E 004°48'0 0.0
2017-Apr-25 08:00N 53°00' E 004°48'0 0.0
2017-Apr-25 07:27N 53°00' E 004°48'0 0.0
2017-Apr-25 06:57N 53°00' E 004°48'0 0.0
2017-Apr-25 06:30N 53°00' E 004°48'0 0.0
2017-Apr-25 06:00N 53°00' E 004°48'0 0.0
2017-Apr-25 05:30N 53°00' E 004°48'0 0.0
2017-Apr-25 04:57N 53°00' E 004°48'0 0.0
2017-Apr-25 04:27N 53°00' E 004°48'0 0.0
2017-Apr-25 04:00N 53°00' E 004°48'0 0.0
2017-Apr-25 03:27N 53°00' E 004°48'0 0.0
2017-Apr-25 03:00N 53°00' E 004°48'0 0.0
2017-Apr-25 02:30N 53°00' E 004°48'0 0.0
2017-Apr-25 02:00N 53°00' E 004°48'0 0.0
2017-Apr-25 01:30N 53°00' E 004°48'0 0.0
2017-Apr-25 01:00N 53°00' E 004°48'0 0.0
2017-Apr-25 00:30N 53°00' E 004°48'0 0.0
2017-Apr-25 00:00N 53°00' E 004°48'0 0.0
2017-Apr-24 23:27N 53°00' E 004°48'0 0.0
2017-Apr-24 23:00N 53°00' E 004°48'0 0.0
2017-Apr-24 22:30N 53°00' E 004°48'0 0.0
2017-Apr-24 22:00N 53°00' E 004°48'0 0.0
2017-Apr-24 21:30N 53°00' E 004°48'0 0.0
2017-Apr-24 21:00N 53°00' E 004°48'0 0.0
2017-Apr-24 20:30N 53°00' E 004°48'0 0.0
2017-Apr-24 19:57N 53°00' E 004°48'0 0.0
2017-Apr-24 19:27N 53°00' E 004°48'0 0.0
2017-Apr-24 19:00N 53°00' E 004°48'0 0.0
2017-Apr-24 18:27N 53°00' E 004°48'0 0.0
2017-Apr-24 18:00N 53°00' E 004°48'0 0.0
2017-Apr-24 17:30N 53°00' E 004°48'0 0.0
2017-Apr-24 17:00N 53°00' E 004°48'0 0.0
2017-Apr-24 16:30N 53°00' E 004°48'0 0.0
2017-Apr-24 16:00N 53°00' E 004°48'0 0.0
2017-Apr-24 15:27N 53°00' E 004°48'0 0.0
2017-Apr-24 15:00N 53°00' E 004°48'0 0.0
2017-Apr-24 14:30N 53°00' E 004°48'0 0.0
2017-Apr-24 13:30N 53°00' E 004°48'0 0.0
2017-Apr-24 13:00N 53°00' E 004°48'0 0.0
2017-Apr-24 12:30N 53°00' E 004°48'0 0.0
2017-Apr-24 12:00N 53°00' E 004°48'0 0.0
2017-Apr-24 11:30N 53°00' E 004°48'0 0.0
2017-Apr-24 11:00N 53°00' E 004°48'0 0.0
2017-Apr-24 10:27N 53°00' E 004°48'0 0.0
2017-Apr-24 10:00N 53°00' E 004°48'0 0.0
2017-Apr-24 09:27N 53°00' E 004°48'0 0.0
2017-Apr-24 08:57N 53°00' E 004°48'0 0.0
2017-Apr-24 08:30N 53°00' E 004°48'0 0.0
2017-Apr-24 08:00N 53°00' E 004°48'0 0.0
2017-Apr-24 07:30N 53°00' E 004°48'0 0.0
2017-Apr-24 07:00N 53°00' E 004°48'0 0.0
2017-Apr-24 06:30N 53°00' E 004°48'0 0.0
2017-Apr-24 06:00N 53°00' E 004°48'0 0.0
2017-Apr-24 05:30N 53°00' E 004°48'0 0.0
2017-Apr-24 04:57N 53°00' E 004°48'0 0.0
2017-Apr-24 04:30N 53°00' E 004°48'0 0.0
2017-Apr-24 04:00N 53°00' E 004°48'0 0.0
2017-Apr-24 03:30N 53°00' E 004°48'0 0.0
2017-Apr-24 03:00N 53°00' E 004°48'0 0.0
2017-Apr-24 02:30N 53°00' E 004°48'0 0.0
2017-Apr-24 02:00N 53°00' E 004°48'0 0.0
2017-Apr-24 01:29N 53°00' E 004°48'0 0.0
2017-Apr-24 00:56N 53°00' E 004°48'0 0.0
2017-Apr-24 00:29N 53°00' E 004°48'0 0.0
2017-Apr-23 23:59N 53°00' E 004°48'0 0.0
2017-Apr-23 23:29N 53°00' E 004°48'0 0.0
2017-Apr-23 22:59N 53°00' E 004°48'0 0.0
2017-Apr-23 22:29N 53°00' E 004°48'0 0.0
2017-Apr-23 21:56N 53°00' E 004°48'0 0.0
2017-Apr-23 21:29N 53°00' E 004°48'0 0.0
2017-Apr-23 20:59N 53°00' E 004°48'0 0.0
2017-Apr-23 20:29N 53°00' E 004°48'0 0.0
2017-Apr-23 19:59N 53°00' E 004°48'0 0.0
2017-Apr-23 19:29N 53°00' E 004°48'0 0.0
2017-Apr-23 18:56N 53°00' E 004°48'0 0.0
2017-Apr-23 18:29N 53°00' E 004°48'0 0.0
2017-Apr-23 17:56N 53°00' E 004°48'0 0.0
2017-Apr-23 17:29N 53°00' E 004°48'0 0.0
2017-Apr-23 16:59N 53°00' E 004°48'0 0.0
2017-Apr-23 16:29N 53°00' E 004°48'0 0.0
2017-Apr-23 15:59N 53°00' E 004°48'0 0.0
2017-Apr-23 15:29N 53°00' E 004°48'0 0.0
2017-Apr-23 14:59N 53°00' E 004°48'0 0.0
2017-Apr-23 13:59N 53°00' E 004°48'0 0.0
2017-Apr-23 13:29N 53°00' E 004°48'0 0.0
2017-Apr-23 12:59N 53°00' E 004°48'0 0.0
2017-Apr-23 12:29N 53°00' E 004°48'0 0.0
2017-Apr-23 11:59N 53°00' E 004°48'0 0.0
2017-Apr-23 11:29N 53°00' E 004°48'0 0.0
2017-Apr-23 10:59N 53°00' E 004°48'0 0.0
2017-Apr-23 10:29N 53°00' E 004°48'0 0.0
2017-Apr-23 09:59N 53°00' E 004°48'0 0.0
2017-Apr-23 09:29N 53°00' E 004°48'0 0.0
2017-Apr-23 08:59N 53°00' E 004°48'0 0.0
2017-Apr-23 08:26N 53°00' E 004°48'0 0.0
2017-Apr-23 07:59N 53°00' E 004°48'0 0.0
2017-Apr-23 07:23N 53°00' E 004°48'0 0.0
2017-Apr-23 06:59N 53°00' E 004°48'0 0.0
2017-Apr-23 06:29N 53°00' E 004°48'0 0.0
2017-Apr-23 05:56N 53°00' E 004°48'0 0.0
2017-Apr-23 05:29N 53°00' E 004°48'0 0.0
2017-Apr-23 04:59N 53°00' E 004°48'0 0.0
2017-Apr-23 04:29N 53°00' E 004°48'0 0.0
2017-Apr-23 03:56N 53°00' E 004°48'0 0.0
2017-Apr-23 03:29N 53°00' E 004°48'0 0.0
2017-Apr-23 02:59N 53°00' E 004°48'0 0.0
2017-Apr-23 02:26N 53°00' E 004°48'0 0.0
2017-Apr-23 01:59N 53°00' E 004°48'0 0.0
2017-Apr-23 01:29N 53°00' E 004°48'0 0.0
2017-Apr-23 00:59N 53°00' E 004°48'0 0.0
2017-Apr-23 00:26N 53°00' E 004°48'0 0.0
2017-Apr-22 23:56N 53°00' E 004°48'0 0.0
2017-Apr-22 23:26N 53°00' E 004°48'0 0.0
2017-Apr-22 22:59N 53°00' E 004°48'0 0.0
2017-Apr-22 22:29N 53°00' E 004°48'0 0.0
2017-Apr-22 21:59N 53°00' E 004°48'0 0.0
2017-Apr-22 21:29N 53°00' E 004°48'0 0.0
2017-Apr-22 20:59N 53°00' E 004°48'0 0.0
2017-Apr-22 20:20N 53°00' E 004°48'0 0.0
2017-Apr-22 19:59N 53°00' E 004°48'0 0.0
2017-Apr-22 19:29N 53°00' E 004°48'0 0.0
2017-Apr-22 18:59N 53°00' E 004°48'0 0.0
2017-Apr-22 18:26N 53°00' E 004°48'0 0.0
2017-Apr-22 17:59N 53°00' E 004°48'0 0.0
2017-Apr-22 17:29N 53°00' E 004°48'0 0.0
2017-Apr-22 16:56N 53°00' E 004°48'0 0.0
2017-Apr-22 16:29N 53°00' E 004°48'0 0.0
2017-Apr-22 15:59N 53°00' E 004°48'0 0.0
2017-Apr-22 15:29N 53°00' E 004°48'0 0.0
2017-Apr-22 14:59N 53°00' E 004°48'0 0.0
2017-Apr-22 14:29N 53°00' E 004°48'0 0.0
2017-Apr-22 13:29N 53°00' E 004°48'0 0.0
2017-Apr-22 12:59N 53°00' E 004°48'0 0.0
2017-Apr-22 12:28N 53°00' E 004°48'0 0.0
2017-Apr-22 11:58N 53°00' E 004°48'0 0.0
2017-Apr-22 11:28N 53°00' E 004°48'0 0.0
2017-Apr-22 10:58N 53°00' E 004°48'0 0.0
2017-Apr-22 10:28N 53°00' E 004°48'0 0.0
2017-Apr-22 09:58N 53°00' E 004°48'0 0.0
2017-Apr-22 09:25N 53°00' E 004°48'0 0.0
2017-Apr-22 08:58N 53°00' E 004°48'0 0.0
2017-Apr-22 08:25N 53°00' E 004°48'0 0.0
2017-Apr-22 07:58N 53°00' E 004°48'0 0.0
2017-Apr-22 07:28N 53°00' E 004°48'0 0.0
2017-Apr-22 06:58N 53°00' E 004°48'0 0.0
2017-Apr-22 06:28N 53°00' E 004°48'0 0.0
2017-Apr-22 05:58N 53°00' E 004°48'0 0.0
2017-Apr-22 05:28N 53°00' E 004°48'0 0.0
2017-Apr-22 04:58N 53°00' E 004°48'0 0.0
2017-Apr-22 04:25N 53°00' E 004°48'0 0.0
2017-Apr-22 03:58N 53°00' E 004°48'0 0.0
2017-Apr-22 03:22N 53°00' E 004°48'0 0.0
2017-Apr-22 02:58N 53°00' E 004°48'0 0.0
2017-Apr-22 02:28N 53°00' E 004°48'0 0.0
2017-Apr-22 01:58N 53°00' E 004°48'0 0.0
2017-Apr-22 01:28N 53°00' E 004°48'0 0.0
2017-Apr-22 00:58N 53°00' E 004°48'0 0.0
2017-Apr-22 00:28N 53°00' E 004°48'0 0.0
2017-Apr-21 23:58N 53°00' E 004°48'0 0.0
2017-Apr-21 23:28N 53°00' E 004°48'0 0.0
2017-Apr-21 22:58N 53°00' E 004°48'0 0.0
2017-Apr-21 22:28N 53°00' E 004°48'0 0.0
2017-Apr-21 21:58N 53°00' E 004°48'0 0.0
2017-Apr-21 21:28N 53°00' E 004°48'0 0.0
2017-Apr-21 20:58N 53°00' E 004°48'0 0.0
2017-Apr-21 20:28N 53°00' E 004°48'0 0.0
2017-Apr-21 19:58N 53°00' E 004°48'0 0.0
2017-Apr-21 19:28N 53°00' E 004°48'0 0.0
2017-Apr-21 18:58N 53°00' E 004°48'0 0.0
2017-Apr-21 18:19N 53°00' E 004°48'0 0.0
2017-Apr-21 17:58N 53°00' E 004°48'0 0.0
2017-Apr-21 17:25N 53°00' E 004°48'0 0.0
2017-Apr-21 16:58N 53°00' E 004°48'0 0.0
2017-Apr-21 16:28N 53°00' E 004°48'0 0.0
2017-Apr-21 15:58N 53°00' E 004°48'1 2.5
2017-Apr-21 15:30N 53°01' E 004°50'1 1.8
2017-Apr-21 15:00N 53°00' E 004°48'510.2
2017-Apr-21 14:30N 52°57' E 004°42'1110.8
2017-Apr-21 13:30N 52°49' E 004°29'611.4
2017-Apr-21 13:00N 52°46' E 004°21'611.6
2017-Apr-21 12:30N 52°43' E 004°13'611.7
2017-Apr-21 12:00N 52°40' E 004°05'611.6
2017-Apr-21 11:30N 52°36' E 003°57'611.5
2017-Apr-21 10:59N 52°33' E 003°49'611.5
2017-Apr-21 10:29N 52°30' E 003°42'611.5
2017-Apr-21 10:00N 52°26' E 003°35'611.6
2017-Apr-21 09:29N 52°22' E 003°27'611.5
2017-Apr-21 08:59N 52°18' E 003°21'5610.4
2017-Apr-21 03:34N 51°35' E 002°22'2 9.7
2017-Apr-21 03:22N 51°33' E 002°20'4 9.7
2017-Apr-21 02:59N 51°30' E 002°17'5 9.8
2017-Apr-21 02:29N 51°27' E 002°12'5 9.9
2017-Apr-21 02:00N 51°23' E 002°07'510.0
2017-Apr-21 01:30N 51°19' E 002°01'510.1
2017-Apr-21 01:00N 51°16' E 001°55'510.3
2017-Apr-21 00:30N 51°13' E 001°49'510.3
2017-Apr-21 00:00N 51°09' E 001°44'510.4
2017-Apr-20 23:30N 51°05' E 001°39'510.6
2017-Apr-20 23:00N 51°01' E 001°33'610.9
2017-Apr-20 22:29N 50°56' E 001°28'6010.2
2017-Apr-20 16:37N 50°19' E 000°13'211.4
2017-Apr-20 16:28N 50°19' E 000°11'611.5
2017-Apr-20 15:58N 50°17' E 000°02'611.6
2017-Apr-20 15:28N 50°15' W 000°06'  

Dump ship's entire track history